Time;durP1;ratioP1;P1;durP2;ratioP2;P2;SDS_P1;SDS_P2;PMS_P1;PMS_P2;Temp;Humidity;BMP_temperature;BMP_pressure;BME280_temperature;BME280_humidity;BME280_pressure;Samples;Min_cycle;Max_cycle;Signal;HPM_P1;HPM_P2
2021/06/17 00:02:04;;;;;;;6.30;5.80;;;26.00;59.90;;;;;;5049700;28;20252;-92
2021/06/17 00:04:30;;;;;;;6.32;5.93;;;26.00;60.30;;;;;;5033438;28;20594;-92
2021/06/17 00:06:55;;;;;;;6.70;6.07;;;26.10;60.20;;;;;;5033299;28;20196;-92
2021/06/17 00:09:21;;;;;;;6.65;6.15;;;26.00;59.90;;;;;;5033047;28;20321;-92
2021/06/17 00:11:47;;;;;;;6.68;6.05;;;25.90;59.80;;;;;;5066767;28;20192;-92
2021/06/17 00:14:13;;;;;;;6.72;6.13;;;25.80;60.10;;;;;;5048729;28;20208;-92
2021/06/17 00:16:39;;;;;;;6.53;5.93;;;25.60;60.70;;;;;;5049229;28;20191;-92
2021/06/17 00:19:05;;;;;;;6.50;6.00;;;25.60;60.90;;;;;;5048697;28;20520;-93
2021/06/17 00:21:31;;;;;;;7.18;6.57;;;25.40;61.10;;;;;;5066248;28;20173;-93
2021/06/17 00:23:56;;;;;;;6.40;6.00;;;25.40;61.40;;;;;;5049167;28;20223;-92
2021/06/17 00:26:22;;;;;;;6.30;5.88;;;25.40;61.60;;;;;;5032692;28;20197;-92
2021/06/17 00:28:48;;;;;;;6.97;6.43;;;25.40;61.80;;;;;;5049628;28;20208;-92
2021/06/17 00:31:14;;;;;;;6.72;6.25;;;25.40;61.60;;;;;;5067385;28;20188;-93
2021/06/17 00:33:39;;;;;;;6.90;6.40;;;25.50;61.40;;;;;;5033260;28;20611;-92
2021/06/17 00:36:05;;;;;;;6.50;5.78;;;25.60;60.90;;;;;;5016836;28;20192;-92
2021/06/17 00:38:31;;;;;;;6.65;6.22;;;25.40;61.10;;;;;;5067561;28;20180;-91
2021/06/17 00:40:57;;;;;;;6.45;6.05;;;25.40;60.90;;;;;;5051628;28;20191;-93
2021/06/17 00:43:23;;;;;;;6.45;6.00;;;25.20;61.50;;;;;;5043110;28;20192;-92
2021/06/17 00:45:51;;;;;;;5.80;5.40;;;25.20;61.50;;;;;;5038083;28;20208;-93
2021/06/17 00:48:17;;;;;;;6.07;5.57;;;25.20;61.90;;;;;;5032828;28;20191;-92
2021/06/17 00:50:45;;;;;;;7.03;6.53;;;25.20;61.90;;;;;;5031905;28;20184;-91
2021/06/17 00:53:16;;;;;;;7.38;6.22;;;25.10;61.80;;;;;;5027138;28;20266;-92
2021/06/17 00:55:44;;;;;;;7.20;6.60;;;25.00;62.00;;;;;;5044214;28;20177;-91
2021/06/17 00:58:11;;;;;;;6.85;6.38;;;24.80;62.30;;;;;;5010256;28;20276;-92
2021/06/17 01:00:37;;;;;;;13.85;7.57;;;24.70;63.50;;;;;;5029924;28;20180;-92
2021/06/17 01:03:04;;;;;;;56.95;11.48;;;24.50;63.30;;;;;;5029160;28;20207;-92
2021/06/17 01:05:31;;;;;;;35.72;8.73;;;24.40;63.80;;;;;;5029009;28;20185;-92
2021/06/17 01:08:17;;;;;;;12.10;7.15;;;24.40;64.30;;;;;;5047138;28;20268;-92
2021/06/17 01:11:10;;;;;;;7.57;6.88;;;24.40;64.40;;;;;;5049036;28;20172;-92
2021/06/17 01:13:47;;;;;;;7.90;7.18;;;24.40;64.40;;;;;;5048555;28;20204;-91
2021/06/17 01:16:30;;;;;;;6.50;6.00;;;24.50;64.90;;;;;;5063914;28;20221;-91
2021/06/17 01:19:00;;;;;;;7.50;6.75;;;24.60;63.80;;;;;;5045763;28;20180;-92
2021/06/17 01:21:36;;;;;;;6.97;6.38;;;24.50;64.00;;;;;;5063375;28;20597;-92
2021/06/17 01:24:45;;;;;;;7.07;6.57;;;24.40;64.60;;;;;;5058971;28;20246;-92
2021/06/17 01:27:38;;;;;;;7.35;6.75;;;24.40;65.50;;;;;;5014257;28;20188;-91
2021/06/17 01:30:13;;;;;;;7.55;7.03;;;24.40;66.30;;;;;;5043471;28;20208;-91
2021/06/17 01:32:44;;;;;;;6.85;6.35;;;24.50;65.90;;;;;;5024687;28;20200;-91
2021/06/17 01:35:11;;;;;;;6.97;6.38;;;24.50;65.40;;;;;;5059132;28;20659;-92
2021/06/17 01:37:38;;;;;;;7.30;6.75;;;24.60;64.90;;;;;;5058623;28;20180;-92
2021/06/17 01:40:06;;;;;;;7.43;6.82;;;24.50;64.70;;;;;;5058577;28;20176;-93
2021/06/17 01:42:35;;;;;;;6.47;5.88;;;24.50;64.00;;;;;;5058196;28;20192;-92
2021/06/17 01:45:03;;;;;;;8.73;7.22;;;24.40;64.60;;;;;;5040037;28;20623;-92
2021/06/17 01:47:29;;;;;;;7.82;7.07;;;24.50;64.80;;;;;;5059342;28;20184;-93
2021/06/17 01:49:56;;;;;;;6.68;6.25;;;24.50;64.50;;;;;;5008526;28;20196;-93
2021/06/17 01:52:24;;;;;;;7.70;6.97;;;24.60;64.30;;;;;;5038926;28;20181;-93
2021/06/17 01:54:51;;;;;;;7.72;7.05;;;24.60;64.30;;;;;;5037070;28;20217;-92
2021/06/17 01:57:20;;;;;;;7.05;6.38;;;24.60;64.10;;;;;;5037681;28;20188;-92
2021/06/17 01:59:48;;;;;;;7.57;6.82;;;24.60;64.20;;;;;;5021826;28;20187;-92
2021/06/17 02:02:16;;;;;;;7.43;6.72;;;24.70;63.80;;;;;;5036987;28;20181;-91
2021/06/17 02:04:46;;;;;;;8.13;7.43;;;24.70;64.00;;;;;;5024074;28;20196;-92
2021/06/17 02:07:13;;;;;;;6.88;6.38;;;24.60;63.90;;;;;;5040104;28;20188;-92
2021/06/17 02:09:39;;;;;;;8.15;7.47;;;24.50;63.90;;;;;;5058355;28;20203;-92
2021/06/17 02:12:05;;;;;;;8.15;7.45;;;24.30;64.40;;;;;;5040010;28;20242;-92
2021/06/17 02:14:31;;;;;;;8.30;7.60;;;24.00;65.60;;;;;;5060106;28;20636;-93
2021/06/17 02:16:59;;;;;;;8.45;7.75;;;23.80;67.50;;;;;;5041869;28;20199;-91
2021/06/17 02:19:28;;;;;;;7.68;7.07;;;23.90;67.40;;;;;;5025447;28;20186;-91
2021/06/17 02:21:58;;;;;;;8.20;7.50;;;24.00;67.10;;;;;;5060414;28;20173;-91
2021/06/17 02:24:25;;;;;;;8.15;7.47;;;24.10;67.00;;;;;;5067932;28;20198;-91
2021/06/17 02:26:55;;;;;;;8.23;7.45;;;24.10;66.80;;;;;;5059374;28;20187;-92
2021/06/17 02:29:22;;;;;;;6.97;6.47;;;24.10;66.80;;;;;;5059454;28;20196;-92
2021/06/17 02:31:50;;;;;;;7.88;7.25;;;24.20;66.50;;;;;;5057454;28;20191;-91
2021/06/17 02:34:17;;;;;;;7.70;6.95;;;24.30;65.90;;;;;;5009079;28;20235;-91
2021/06/17 02:36:45;;;;;;;6.97;6.53;;;24.30;65.70;;;;;;5032114;28;20205;-92
2021/06/17 02:39:13;;;;;;;7.55;6.85;;;24.30;65.70;;;;;;5006388;28;20177;-92
2021/06/17 02:41:44;;;;;;;7.53;7.00;;;24.30;65.40;;;;;;5040360;28;20280;-93
2021/06/17 02:44:11;;;;;;;7.43;6.82;;;24.30;65.70;;;;;;5022236;28;20702;-92
2021/06/17 02:46:37;;;;;;;8.05;7.20;;;24.20;65.80;;;;;;5038655;28;20196;-93
2021/06/17 02:49:07;;;;;;;8.10;7.40;;;24.20;65.90;;;;;;5038473;28;20173;-92
2021/06/17 02:51:33;;;;;;;7.65;7.00;;;24.20;65.90;;;;;;5021064;28;20292;-93
2021/06/17 02:53:59;;;;;;;7.63;7.10;;;24.20;65.50;;;;;;5012950;28;20219;-93
2021/06/17 02:56:53;;;;;;;7.75;7.15;;;24.30;66.00;;;;;;5019942;28;20205;-93
2021/06/17 02:59:27;;;;;;;7.78;7.22;;;24.30;65.40;;;;;;4981526;28;20660;-93
2021/06/17 03:02:00;;;;;;;6.80;6.30;;;24.30;65.00;;;;;;5025209;28;20184;-92
2021/06/17 03:05:02;;;;;;;8.60;6.93;;;24.20;65.20;;;;;;5022360;28;20228;-94
2021/06/17 03:07:35;;;;;;;7.75;6.97;;;24.10;65.50;;;;;;5021536;28;20280;-93
2021/06/17 03:10:10;;;;;;;7.85;7.22;;;24.00;65.60;;;;;;5021727;28;20188;-93
2021/06/17 03:12:38;;;;;;;8.23;7.20;;;24.00;65.70;;;;;;5003962;28;20215;-93
2021/06/17 03:15:07;;;;;;;7.38;6.88;;;23.90;65.90;;;;;;5004114;28;20205;-93
2021/06/17 03:17:40;;;;;;;7.93;7.20;;;24.00;65.90;;;;;;5038249;28;20208;-93
2021/06/17 03:20:08;;;;;;;7.07;6.47;;;23.90;66.20;;;;;;5020246;28;20185;-93
2021/06/17 03:22:41;;;;;;;7.22;6.65;;;23.80;65.90;;;;;;5021199;28;20231;-92
2021/06/17 03:25:11;;;;;;;7.70;7.05;;;23.90;65.70;;;;;;5018709;28;20177;-94
2021/06/17 03:27:38;;;;;;;8.13;6.80;;;23.90;65.70;;;;;;5003134;28;20188;-93
2021/06/17 03:30:06;;;;;;;8.20;6.80;;;23.90;65.80;;;;;;5019031;28;20276;-93
2021/06/17 03:32:35;;;;;;;10.43;7.43;;;23.90;65.80;;;;;;5036278;28;20586;-93
2021/06/17 03:35:01;;;;;;;8.00;7.15;;;23.80;65.60;;;;;;5036621;28;20219;-93
2021/06/17 03:37:28;;;;;;;8.38;7.57;;;23.90;65.40;;;;;;5019407;28;20184;-93
2021/06/17 03:39:58;;;;;;;9.82;7.25;;;24.00;65.20;;;;;;5003480;28;20185;-93
2021/06/17 03:42:25;;;;;;;9.40;7.95;;;23.90;65.40;;;;;;5036672;28;20231;-92
2021/06/17 03:44:52;;;;;;;7.63;7.00;;;23.80;65.50;;;;;;5037322;28;20181;-92
2021/06/17 03:47:23;;;;;;;8.65;7.50;;;23.80;65.70;;;;;;5020779;28;20283;-93
2021/06/17 03:49:50;;;;;;;8.93;8.13;;;23.80;65.90;;;;;;5019454;28;20181;-93
2021/06/17 03:52:16;;;;;;;9.15;7.88;;;23.80;66.20;;;;;;5019688;28;20180;-93
2021/06/17 03:54:43;;;;;;;9.73;7.57;;;23.70;66.60;;;;;;5038054;28;20804;-94
2021/06/17 03:57:10;;;;;;;7.45;6.90;;;23.70;66.40;;;;;;5020232;28;20185;-92
2021/06/17 03:59:41;;;;;;;8.20;7.22;;;23.70;66.50;;;;;;5021654;28;20173;-91
2021/06/17 04:02:07;;;;;;;8.68;7.72;;;23.80;66.10;;;;;;5006352;28;20197;-91
2021/06/17 04:04:34;;;;;;;13.63;7.43;;;23.70;66.40;;;;;;5020861;28;20540;-92
2021/06/17 04:07:05;;;;;;;7.60;6.90;;;23.60;66.70;;;;;;5003731;28;20185;-92
2021/06/17 04:09:34;;;;;;;8.75;7.85;;;23.60;66.70;;;;;;5020236;28;20185;-92
2021/06/17 04:12:05;;;;;;;10.38;7.80;;;23.50;67.10;;;;;;5004601;28;20217;-92
2021/06/17 04:14:34;;;;;;;10.88;8.10;;;23.50;67.40;;;;;;5019833;28;20219;-91
2021/06/17 04:17:03;;;;;;;10.40;8.32;;;23.50;67.40;;;;;;5020763;28;20191;-92
2021/06/17 04:19:30;;;;;;;8.70;7.82;;;23.50;67.10;;;;;;5021840;28;20181;-91
2021/06/17 04:22:00;;;;;;;8.57;7.78;;;23.60;67.30;;;;;;5043444;28;20417;-92
2021/06/17 04:24:30;;;;;;;8.38;7.68;;;23.60;67.00;;;;;;5024008;28;20197;-92
2021/06/17 04:26:57;;;;;;;9.50;8.70;;;23.70;66.70;;;;;;5006513;28;20261;-92
2021/06/17 04:29:23;;;;;;;10.18;8.40;;;23.70;66.20;;;;;;5023024;28;20209;-93
2021/06/17 04:31:50;;;;;;;11.48;8.35;;;23.80;66.60;;;;;;5025376;28;20200;-93
2021/06/17 04:34:17;;;;;;;9.07;7.70;;;23.70;67.00;;;;;;5025759;28;20835;-93
2021/06/17 04:36:44;;;;;;;9.00;8.13;;;23.70;67.20;;;;;;5010087;28;20686;-92
2021/06/17 04:39:10;;;;;;;8.77;8.07;;;23.60;67.50;;;;;;5055268;28;20185;-93
2021/06/17 04:41:41;;;;;;;8.77;7.80;;;23.50;68.00;;;;;;5036230;28;20200;-92
2021/06/17 04:44:07;;;;;;;9.35;6.97;;;23.60;67.90;;;;;;5025365;28;20197;-93
2021/06/17 04:46:35;;;;;;;8.77;8.10;;;23.60;67.70;;;;;;5043352;28;20188;-92
2021/06/17 04:49:03;;;;;;;8.27;7.47;;;23.70;67.50;;;;;;5025580;28;20185;-92
2021/06/17 04:51:32;;;;;;;9.63;8.40;;;23.80;67.10;;;;;;5009880;28;20249;-92
2021/06/17 04:53:58;;;;;;;8.45;7.63;;;23.70;67.70;;;;;;5026982;28;20216;-92
2021/06/17 04:56:24;;;;;;;10.73;7.97;;;23.60;68.30;;;;;;5024762;28;20178;-92
2021/06/17 04:58:50;;;;;;;8.05;7.35;;;23.60;68.20;;;;;;5008491;28;20189;-92
2021/06/17 05:01:19;;;;;;;8.48;7.78;;;23.70;68.60;;;;;;5010388;28;20188;-92
2021/06/17 05:03:46;;;;;;;8.93;8.23;;;23.70;68.90;;;;;;5026775;28;20200;-92
2021/06/17 05:06:13;;;;;;;8.93;8.23;;;23.50;70.20;;;;;;5025126;28;20181;-93
2021/06/17 05:11:23;;;;;;;8.35;7.65;;;23.20;72.40;;;;;;5026002;28;20223;-93
2021/06/17 05:13:49;;;;;;;8.93;8.32;;;23.40;71.40;;;;;;5022842;28;20232;-92
2021/06/17 05:16:15;;;;;;;9.05;8.25;;;23.50;70.40;;;;;;5020181;28;20181;-92
2021/06/17 05:18:40;;;;;;;9.32;8.52;;;23.70;70.40;;;;;;5038492;28;20181;-92
2021/06/17 05:21:07;;;;;;;8.63;7.80;;;23.80;69.20;;;;;;5005337;28;20192;-92
2021/06/17 05:23:34;;;;;;;8.90;8.30;;;23.90;68.40;;;;;;5023026;28;20574;-91
2021/06/17 05:26:00;;;;;;;10.20;8.85;;;23.90;67.80;;;;;;5004308;28;20184;-92
2021/06/17 05:28:28;;;;;;;9.18;8.48;;;23.90;68.30;;;;;;5023716;28;20296;-92
2021/06/17 05:30:57;;;;;;;8.80;8.20;;;24.00;68.80;;;;;;5021583;28;20231;-92
2021/06/17 05:33:23;;;;;;;9.45;8.68;;;24.10;68.00;;;;;;5021719;28;20304;-92
2021/06/17 05:35:49;;;;;;;8.73;8.00;;;24.20;66.80;;;;;;5042149;28;20192;-92
2021/06/17 05:38:23;;;;;;;10.88;9.95;;;24.30;65.10;;;;;;5044226;28;20178;-91
2021/06/17 05:40:50;;;;;;;9.88;8.98;;;24.50;64.00;;;;;;5053963;28;20161;-92
2021/06/17 05:43:18;;;;;;;10.88;9.73;;;24.50;64.20;;;;;;5018361;28;20629;-94
2021/06/17 05:45:44;;;;;;;11.90;9.75;;;24.50;64.60;;;;;;5044020;28;20203;-93
2021/06/17 05:48:09;;;;;;;10.27;9.32;;;24.40;63.50;;;;;;5025644;28;20181;-92
2021/06/17 05:50:35;;;;;;;9.82;9.02;;;24.30;64.60;;;;;;5019338;28;20181;-92
2021/06/17 05:53:01;;;;;;;14.55;9.43;;;24.20;66.30;;;;;;5034420;28;20227;-92
2021/06/17 05:55:27;;;;;;;12.45;9.73;;;24.20;66.20;;;;;;5039811;28;20211;-93
2021/06/17 05:57:53;;;;;;;10.02;9.23;;;24.30;67.00;;;;;;5057918;28;20184;-93
2021/06/17 06:00:18;;;;;;;9.88;9.07;;;24.40;65.70;;;;;;5040336;28;20203;-92
2021/06/17 06:02:44;;;;;;;15.57;9.38;;;24.50;64.80;;;;;;5008412;28;20224;-92
2021/06/17 06:05:10;;;;;;;11.48;9.50;;;24.60;65.80;;;;;;5008562;28;20187;-92
2021/06/17 06:07:38;;;;;;;11.80;9.60;;;24.60;66.30;;;;;;5040859;28;20241;-92
2021/06/17 06:10:04;;;;;;;9.95;9.07;;;24.50;66.50;;;;;;5024621;28;20184;-92
2021/06/17 06:12:30;;;;;;;10.60;9.68;;;24.50;66.20;;;;;;5007715;28;20209;-92
2021/06/17 06:14:56;;;;;;;19.48;10.18;;;24.50;65.60;;;;;;5023750;28;20572;-92
2021/06/17 06:17:21;;;;;;;10.27;9.32;;;24.60;65.60;;;;;;5039836;28;20192;-92
2021/06/17 06:19:47;;;;;;;9.93;9.13;;;24.40;66.60;;;;;;5007295;28;20191;-93
2021/06/17 06:22:13;;;;;;;10.88;9.52;;;24.40;66.10;;;;;;5040419;28;20191;-92
2021/06/17 06:24:38;;;;;;;10.00;9.00;;;24.50;66.10;;;;;;5057540;28;20180;-93
2021/06/17 06:27:06;;;;;;;10.35;9.55;;;24.70;65.00;;;;;;5038798;28;20598;-92
2021/06/17 06:29:32;;;;;;;10.52;9.73;;;24.80;64.40;;;;;;5058985;28;20181;-91
2021/06/17 06:31:58;;;;;;;10.27;9.30;;;25.00;63.70;;;;;;5057697;28;20176;-92
2021/06/17 06:34:25;;;;;;;10.40;9.02;;;25.00;64.00;;;;;;5058658;28;20211;-92
2021/06/17 06:36:51;;;;;;;11.63;9.23;;;25.10;63.00;;;;;;5051852;28;20175;-95
2021/06/17 06:39:17;;;;;;;9.80;9.00;;;25.30;63.20;;;;;;5049438;28;20192;-91
2021/06/17 06:41:44;;;;;;;13.93;9.13;;;25.20;64.30;;;;;;5040390;28;20207;-91
2021/06/17 06:44:10;;;;;;;10.80;9.88;;;25.40;63.60;;;;;;5051706;28;20682;-92
2021/06/17 06:46:40;;;;;;;10.60;9.50;;;25.40;63.40;;;;;;5048057;28;20185;-91
2021/06/17 06:49:06;;;;;;;9.48;8.68;;;25.50;64.30;;;;;;5050207;28;20232;-95
2021/06/17 06:51:35;;;;;;;12.63;8.77;;;25.30;64.20;;;;;;5058078;28;20173;-93
2021/06/17 06:54:02;;;;;;;10.48;8.98;;;25.30;65.40;;;;;;5038292;28;20215;-93
2021/06/17 06:56:27;;;;;;;10.55;8.90;;;25.20;66.00;;;;;;5055377;28;20172;-93
2021/06/17 06:58:54;;;;;;;10.23;9.25;;;25.10;65.40;;;;;;5020330;28;20172;-94
2021/06/17 07:01:19;;;;;;;9.07;8.38;;;25.00;67.50;;;;;;5022110;28;20203;-92
2021/06/17 07:03:45;;;;;;;9.60;8.73;;;25.20;65.60;;;;;;5019975;28;20196;-94
2021/06/17 07:06:11;;;;;;;8.77;8.15;;;25.30;65.00;;;;;;5032126;28;20184;-92
2021/06/17 07:08:37;;;;;;;9.07;7.93;;;25.30;63.80;;;;;;5028906;28;20188;-92
2021/06/17 07:11:02;;;;;;;9.25;8.18;;;25.40;60.40;;;;;;5031218;28;20191;-91
2021/06/17 07:13:29;;;;;;;8.25;7.55;;;25.50;60.90;;;;;;5030121;28;20212;-92
2021/06/17 07:15:55;;;;;;;9.93;8.40;;;25.70;60.00;;;;;;5026643;28;20215;-91
2021/06/17 07:18:21;;;;;;;9.30;8.55;;;25.60;58.80;;;;;;5010305;28;20185;-90
2021/06/17 07:20:46;;;;;;;9.18;7.88;;;25.60;59.50;;;;;;5056758;28;20184;-91
2021/06/17 07:23:12;;;;;;;9.68;8.77;;;25.90;60.00;;;;;;5098353;22;20650;-90
2021/06/17 07:25:38;;;;;;;8.40;7.80;;;26.10;59.60;;;;;;5026200;28;20200;-91
2021/06/17 07:28:04;;;;;;;8.90;8.10;;;26.20;58.00;;;;;;5032122;28;20185;-91
2021/06/17 07:30:30;;;;;;;9.82;8.93;;;26.40;56.20;;;;;;5041807;28;20185;-91
2021/06/17 07:32:56;;;;;;;8.80;8.10;;;26.50;56.60;;;;;;5043095;28;20247;-90
2021/06/17 07:35:23;;;;;;;9.23;8.40;;;26.50;56.00;;;;;;5036071;28;20205;-91
2021/06/17 07:37:49;;;;;;;9.02;8.15;;;26.50;55.10;;;;;;5043516;28;20184;-91
2021/06/17 07:40:16;;;;;;;10.18;8.00;;;26.60;55.70;;;;;;5040760;28;20169;-90
2021/06/17 07:42:42;;;;;;;8.98;8.07;;;26.70;56.40;;;;;;5037077;28;20274;-92
2021/06/17 07:45:10;;;;;;;8.82;8.05;;;26.80;54.00;;;;;;5039087;28;20667;-93
2021/06/17 07:47:37;;;;;;;9.63;7.40;;;27.00;55.00;;;;;;5054322;28;20200;-92
2021/06/17 07:50:05;;;;;;;8.85;8.15;;;27.10;53.20;;;;;;5022394;28;20621;-91
2021/06/17 07:52:31;;;;;;;8.63;7.88;;;27.20;54.20;;;;;;5041898;28;20185;-91
2021/06/17 07:54:57;;;;;;;9.85;8.85;;;27.10;53.80;;;;;;5008445;28;20212;-91
2021/06/17 07:57:24;;;;;;;8.80;7.95;;;27.10;53.00;;;;;;5023733;28;20184;-92
2021/06/17 07:59:50;;;;;;;12.18;8.30;;;27.20;52.30;;;;;;5008724;28;20196;-92
2021/06/17 08:02:16;;;;;;;9.40;8.13;;;27.60;52.80;;;;;;5024874;28;20272;-91
2021/06/17 08:04:42;;;;;;;8.20;7.30;;;27.70;52.80;;;;;;5028884;28;20192;-91
2021/06/17 08:07:08;;;;;;;11.77;8.27;;;27.70;53.20;;;;;;5012495;28;20185;-91
2021/06/17 08:09:35;;;;;;;9.60;8.80;;;27.80;54.00;;;;;;5012582;28;20350;-91
2021/06/17 08:12:01;;;;;;;9.43;8.68;;;27.80;52.90;;;;;;5014117;28;20192;-91
2021/06/17 08:14:29;;;;;;;9.55;8.27;;;27.70;53.10;;;;;;5029915;28;20212;-91
2021/06/17 08:17:17;;;;;;;9.63;8.73;;;27.90;53.20;;;;;;5014767;28;20239;-91
2021/06/17 08:19:43;;;;;;;8.50;7.80;;;27.90;54.30;;;;;;5029795;28;20177;-92
2021/06/17 08:22:10;;;;;;;10.18;9.20;;;28.00;54.00;;;;;;5029734;28;20201;-92
2021/06/17 08:25:18;;;;;;;9.48;8.63;;;28.10;52.10;;;;;;4948343;29;20200;-92
2021/06/17 08:27:51;;;;;;;10.88;8.68;;;28.30;51.00;;;;;;4965543;28;20310;-93
2021/06/17 08:30:25;;;;;;;9.07;8.38;;;28.60;49.50;;;;;;5012110;28;20204;-91
2021/06/17 08:32:52;;;;;;;8.75;8.05;;;28.80;50.40;;;;;;5033284;28;20203;-93
2021/06/17 08:35:21;;;;;;;8.98;8.27;;;29.00;51.70;;;;;;5033606;28;20209;-91
2021/06/17 08:37:46;;;;;;;8.55;7.88;;;29.00;49.60;;;;;;5013389;28;20187;-92
2021/06/17 08:40:12;;;;;;;9.93;8.82;;;28.80;50.10;;;;;;5028009;28;20272;-91
2021/06/17 08:42:45;;;;;;;9.18;8.32;;;28.90;49.20;;;;;;5011794;28;20208;-92
2021/06/17 08:45:17;;;;;;;9.23;8.40;;;28.80;49.00;;;;;;5027742;28;20181;-92
2021/06/17 08:47:46;;;;;;;9.15;8.25;;;29.00;49.00;;;;;;5030116;28;20177;-91
2021/06/17 08:50:14;;;;;;;10.18;8.77;;;28.80;49.00;;;;;;5030748;28;20188;-91
2021/06/17 08:52:40;;;;;;;8.95;8.18;;;28.80;47.40;;;;;;5031199;28;20675;-92
2021/06/17 08:55:15;;;;;;;9.82;8.02;;;28.90;48.40;;;;;;5014605;28;20236;-92
2021/06/17 08:57:42;;;;;;;8.55;7.90;;;28.90;48.30;;;;;;5034756;28;20177;-91
2021/06/17 09:00:20;;;;;;;9.80;8.98;;;28.90;50.50;;;;;;5033395;28;20180;-92
2021/06/17 09:02:54;;;;;;;8.50;7.78;;;29.00;51.70;;;;;;5031013;28;20204;-93
2021/06/17 09:05:21;;;;;;;8.48;7.85;;;28.90;51.00;;;;;;5030836;28;20251;-92
2021/06/17 09:08:19;;;;;;;8.40;7.57;;;28.90;47.90;;;;;;5015419;28;20199;-91
2021/06/17 09:10:45;;;;;;;8.20;7.50;;;28.80;48.20;;;;;;5035301;28;20574;-92
2021/06/17 09:16:57;;;;;;;8.82;8.13;;;29.00;48.10;;;;;;5040756;28;20196;-92
2021/06/17 09:19:42;;;;;;;8.48;7.75;;;29.30;49.80;;;;;;5054397;28;20219;-93
2021/06/17 09:22:10;;;;;;;9.32;7.95;;;29.40;47.90;;;;;;5011195;28;20187;-92
2021/06/17 09:24:41;;;;;;;10.35;8.20;;;29.70;45.80;;;;;;5026437;28;20269;-93
2021/06/17 09:28:08;;;;;;;8.23;7.53;;;29.80;44.40;;;;;;5027304;28;20212;-91
2021/06/17 09:41:32;;;;;;;10.57;9.13;;;30.80;43.20;;;;;;4982848;28;20206;-94
2021/06/17 09:43:58;;;;;;;9.20;8.30;;;31.20;43.10;;;;;;4966193;28;20237;-94
2021/06/17 09:46:24;;;;;;;9.13;8.40;;;31.50;42.30;;;;;;4972477;28;20186;-93
2021/06/17 09:48:51;;;;;;;11.15;8.00;;;31.40;41.80;;;;;;5027438;28;20180;-93
2021/06/17 09:51:34;;;;;;;9.50;8.70;;;31.40;40.30;;;;;;5029646;28;20685;-94
2021/06/17 09:54:17;;;;;;;9.07;8.18;;;31.60;39.50;;;;;;5029349;28;20232;-93
2021/06/17 09:57:04;;;;;;;9.13;8.00;;;31.80;38.40;;;;;;5013647;28;20185;-94
2021/06/17 09:59:36;;;;;;;8.65;7.93;;;31.90;38.90;;;;;;5030447;28;20174;-94
2021/06/17 10:02:07;;;;;;;8.93;8.05;;;31.80;39.50;;;;;;5037879;28;20252;-94
2021/06/17 10:04:36;;;;;;;10.45;7.93;;;32.10;38.60;;;;;;5019053;28;20184;-93
2021/06/17 10:07:03;;;;;;;8.73;7.93;;;32.30;38.40;;;;;;5031653;28;20184;-94
2021/06/17 10:09:29;;;;;;;8.88;8.15;;;32.60;36.70;;;;;;5031831;28;20189;-93
2021/06/17 10:11:57;;;;;;;8.85;8.18;;;32.60;36.90;;;;;;5031703;28;20231;-94
2021/06/17 10:14:23;;;;;;;9.10;8.50;;;32.80;37.10;;;;;;5016540;28;20588;-94
2021/06/17 10:16:49;;;;;;;9.80;9.02;;;33.00;38.10;;;;;;5032052;28;20185;-94
2021/06/17 10:19:18;;;;;;;10.50;9.25;;;33.00;38.00;;;;;;5049349;28;20222;-94
2021/06/17 10:21:43;;;;;;;9.10;8.25;;;33.00;37.40;;;;;;5048845;28;20240;-95
2021/06/17 10:24:29;;;;;;;9.55;8.45;;;32.80;37.80;;;;;;5036598;28;20220;-94
2021/06/17 10:26:58;;;;;;;8.68;8.07;;;33.30;38.90;;;;;;5000995;28;20193;-94
2021/06/17 10:29:27;;;;;;;9.73;8.85;;;33.50;37.20;;;;;;5033299;28;20227;-93
2021/06/17 10:31:54;;;;;;;11.35;9.80;;;33.90;37.50;;;;;;5050806;28;20177;-93
2021/06/17 10:34:23;;;;;;;10.35;9.25;;;34.20;36.90;;;;;;5039844;28;20239;-94
2021/06/17 10:37:13;;;;;;;9.85;9.07;;;34.50;36.60;;;;;;5041944;28;20196;-93
2021/06/17 10:40:16;;;;;;;10.15;9.25;;;34.70;36.50;;;;;;5027189;28;20267;-93
2021/06/17 10:45:52;;;;;;;11.25;10.48;;;34.20;36.40;;;;;;5127956;22;20245;-93
2021/06/17 10:48:48;;;;;;;11.65;10.85;;;34.40;36.70;;;;;;5023579;28;20244;-93
2021/06/17 10:51:17;;;;;;;11.95;10.88;;;34.70;36.80;;;;;;5047315;28;20193;-93
2021/06/17 10:53:49;;;;;;;10.90;10.00;;;34.70;36.80;;;;;;5017781;28;20215;-93
2021/06/17 10:56:42;;;;;;;10.73;9.85;;;35.00;36.50;;;;;;5031787;28;20285;-91
2021/06/17 10:59:08;;;;;;;10.88;9.95;;;35.20;36.60;;;;;;5025626;28;20220;-92
2021/06/17 11:01:42;;;;;;;10.73;9.80;;;35.50;36.50;;;;;;5026714;28;20322;-91
2021/06/17 11:04:11;;;;;;;12.38;11.05;;;35.30;36.20;;;;;;5026531;28;20714;-92
2021/06/17 11:06:50;;;;;;;10.43;9.73;;;35.30;37.40;;;;;;5026527;28;20343;-91
2021/06/17 11:09:47;;;;;;;11.05;10.02;;;34.80;37.30;;;;;;5032448;28;20175;-94
2021/06/17 11:12:19;;;;;;;10.65;9.85;;;35.30;37.30;;;;;;5038502;28;20188;-92
2021/06/17 11:14:50;;;;;;;11.32;10.27;;;35.80;37.20;;;;;;5028717;28;20209;-92
2021/06/17 11:17:37;;;;;;;26.65;12.10;;;35.90;36.40;;;;;;5042832;28;20181;-92
2021/06/17 11:20:20;;;;;;;10.45;9.60;;;36.10;37.00;;;;;;5048706;28;20206;-93
2021/06/17 11:22:59;;;;;;;11.27;10.20;;;36.30;36.40;;;;;;5048469;28;20173;-93
2021/06/17 11:25:28;;;;;;;11.27;10.38;;;36.40;37.80;;;;;;5047750;28;20196;-92
2021/06/17 11:28:06;;;;;;;10.88;10.05;;;36.40;37.20;;;;;;5029707;28;20190;-94
2021/06/17 11:31:10;;;;;;;11.48;10.55;;;36.40;36.20;;;;;;5037839;28;20177;-93
2021/06/17 11:33:43;;;;;;;10.50;9.75;;;36.50;36.20;;;;;;5044762;28;20285;-93
2021/06/17 11:36:12;;;;;;;11.52;10.63;;;36.50;37.50;;;;;;5051829;28;20209;-94
2021/06/17 11:38:44;;;;;;;10.50;9.88;;;36.20;37.90;;;;;;5032211;28;20356;-94
2021/06/17 11:41:22;;;;;;;10.00;9.40;;;36.20;37.00;;;;;;5037421;28;20188;-95
2021/06/17 11:43:57;;;;;;;11.40;10.60;;;36.00;37.50;;;;;;5038121;28;20200;-93
2021/06/17 11:46:45;;;;;;;;;;;;;;;;;;;;;
2021/06/17 11:49:19;;;;;;;11.13;10.45;;;36.00;37.30;;;;;;5043438;28;20219;-93
2021/06/17 11:51:53;;;;;;;12.52;11.52;;;36.00;37.80;;;;;;5036798;28;20187;-92
2021/06/17 11:54:23;;;;;;;12.02;10.85;;;36.40;38.00;;;;;;5031669;28;20228;-92
2021/06/17 11:56:54;;;;;;;11.95;11.05;;;36.20;37.10;;;;;;5054295;28;20200;-94
2021/06/17 11:59:30;;;;;;;12.32;11.38;;;36.20;37.20;;;;;;5048869;28;20177;-93
2021/06/17 12:02:03;;;;;;;12.48;11.65;;;36.40;36.80;;;;;;5031660;28;20207;-93
2021/06/17 12:04:52;;;;;;;13.50;12.10;;;36.40;36.70;;;;;;5044784;28;20191;-92
2021/06/17 12:07:23;;;;;;;13.57;11.35;;;36.80;35.80;;;;;;5032455;28;20191;-93
2021/06/17 12:09:50;;;;;;;12.70;11.68;;;37.00;35.80;;;;;;5037853;28;20203;-92
2021/06/17 12:12:24;;;;;;;11.82;11.02;;;36.70;33.40;;;;;;5049640;28;20184;-94
2021/06/17 12:14:55;;;;;;;14.15;12.45;;;36.40;34.90;;;;;;5041950;28;20261;-92
2021/06/17 12:17:37;;;;;;;11.98;11.20;;;36.60;35.80;;;;;;5025144;28;20201;-93
2021/06/17 12:20:25;;;;;;;12.65;11.40;;;36.90;35.40;;;;;;5042332;28;20616;-93
2021/06/17 12:23:02;;;;;;;12.70;11.63;;;37.00;36.60;;;;;;5028424;28;20256;-93
2021/06/17 12:25:38;;;;;;;16.25;11.73;;;37.40;34.20;;;;;;5031269;28;20253;-94
2021/06/17 12:28:08;;;;;;;12.05;11.35;;;37.20;34.80;;;;;;5027712;28;20615;-92
2021/06/17 12:30:48;;;;;;;12.85;11.55;;;37.30;35.10;;;;;;5040308;28;20241;-94
2021/06/17 12:33:22;;;;;;;12.00;11.20;;;37.00;32.50;;;;;;5043255;28;20786;-93
2021/06/17 12:36:03;;;;;;;12.27;11.38;;;37.20;32.00;;;;;;5026807;28;20220;-92
2021/06/17 12:38:33;;;;;;;12.73;11.88;;;37.20;32.90;;;;;;5026927;28;20196;-93
2021/06/17 12:41:16;;;;;;;12.43;11.43;;;37.20;33.30;;;;;;5026422;28;20361;-93
2021/06/17 12:43:55;;;;;;;12.48;11.60;;;37.10;33.20;;;;;;5027087;28;20192;-92
2021/06/17 12:46:30;;;;;;;12.55;11.65;;;37.00;33.40;;;;;;5026521;28;20243;-93
2021/06/17 12:52:06;;;;;;;12.23;11.25;;;37.80;33.90;;;;;;5043141;28;20259;-92
2021/06/17 12:54:36;;;;;;;12.65;11.85;;;38.10;32.20;;;;;;5028542;28;20196;-94
2021/06/17 12:57:22;;;;;;;12.52;11.30;;;37.90;30.80;;;;;;5048902;28;20184;-92
2021/06/17 12:59:57;;;;;;;12.43;11.63;;;38.00;32.60;;;;;;5040113;28;20744;-93
2021/06/17 13:02:23;;;;;;;11.68;10.75;;;37.70;31.50;;;;;;5044510;28;20186;-94
2021/06/17 13:05:18;;;;;;;12.70;11.73;;;37.30;31.20;;;;;;5031358;28;20184;-93
2021/06/17 13:08:11;;;;;;;12.70;11.75;;;37.20;31.10;;;;;;5042335;28;20188;-93
2021/06/17 13:10:50;;;;;;;11.57;10.68;;;37.20;31.50;;;;;;5023572;28;20187;-93
2021/06/17 13:13:24;;;;;;;11.98;10.90;;;36.80;31.70;;;;;;5040023;28;20180;-93
2021/06/17 13:15:55;;;;;;;11.35;10.48;;;36.70;32.80;;;;;;5042799;28;20207;-93
2021/06/17 13:18:27;;;;;;;12.20;11.40;;;36.90;32.20;;;;;;5041694;28;20207;-94
2021/06/17 13:20:59;;;;;;;12.65;11.85;;;37.40;31.80;;;;;;5023212;28;20275;-92
2021/06/17 13:23:31;;;;;;;11.57;10.82;;;37.90;31.20;;;;;;5023796;28;20203;-92
2021/06/17 13:25:58;;;;;;;12.77;11.48;;;38.00;31.60;;;;;;5023546;28;20280;-93